createdAt,value
2019-02-06T00:00:53.090Z,61.37
2019-02-06T00:03:48.517Z,70.90
2019-02-06T00:06:43.322Z,66.90
2019-02-06T00:09:38.132Z,67.80
2019-02-06T00:12:34.131Z,64.40
2019-02-06T00:15:28.606Z,66.83
2019-02-06T00:18:23.224Z,69.40
2019-02-06T00:21:20.528Z,62.77
2019-02-06T00:24:14.961Z,74.93
2019-02-06T00:27:10.073Z,73.10
2019-02-06T00:30:06.149Z,66.77
2019-02-06T00:33:01.987Z,66.37
2019-02-06T00:35:56.391Z,69.63
2019-02-06T00:38:51.550Z,77.13
2019-02-06T00:41:46.343Z,78.53
2019-02-06T00:44:40.536Z,83.30
2019-02-06T00:47:31.440Z,79.23
2019-02-06T00:50:26.481Z,72.97
2019-02-06T00:53:21.617Z,73.13
2019-02-06T00:56:16.728Z,76.73
2019-02-06T00:59:12.445Z,65.73
2019-02-06T01:02:07.443Z,71.10
2019-02-06T01:05:02.804Z,89.17
2019-02-06T01:07:57.747Z,93.33
2019-02-06T01:10:52.481Z,81.93
2019-02-06T01:13:48.300Z,63.87
2019-02-06T01:16:43.052Z,61.53
2019-02-06T01:19:37.651Z,75.07
2019-02-06T01:22:32.753Z,66.67
2019-02-06T01:25:27.452Z,82.67
2019-02-06T01:28:22.634Z,81.63
2019-02-06T01:31:23.771Z,79.80
2019-02-06T01:34:18.920Z,72.63
2019-02-06T01:37:13.933Z,89.17
2019-02-06T01:40:09.387Z,90.33
2019-02-06T01:43:04.462Z,85.77
2019-02-06T01:45:59.346Z,91.93
2019-02-06T01:48:55.173Z,92.50
2019-02-06T01:51:50.599Z,94.67
2019-02-06T01:54:45.147Z,96.17
2019-02-06T01:57:40.068Z,97.27
2019-02-06T02:00:35.006Z,98.20
2019-02-06T02:03:30.473Z,93.13
2019-02-06T02:06:25.298Z,95.33
2019-02-06T02:09:23.253Z,124.87
2019-02-06T02:12:18.092Z,119.47
2019-02-06T02:15:15.249Z,106.50
2019-02-06T02:18:10.781Z,100.47
2019-02-06T02:21:05.634Z,96.20
2019-02-06T02:24:00.562Z,96.97
2019-02-06T02:26:55.269Z,88.77
2019-02-06T02:29:50.526Z,89.97
2019-02-06T02:32:45.785Z,86.87
2019-02-06T02:35:40.386Z,89.57
2019-02-06T02:38:35.572Z,87.37
2019-02-06T02:41:30.477Z,86.83
2019-02-06T02:44:25.412Z,87.70
2019-02-06T02:47:20.387Z,89.30
2019-02-06T02:50:16.819Z,85.77
2019-02-06T02:53:11.903Z,84.40
2019-02-06T02:56:06.543Z,82.57
2019-02-06T02:59:01.159Z,83.60
2019-02-06T03:02:09.929Z,82.87
2019-02-06T03:05:12.697Z,81.97
2019-02-06T03:08:07.646Z,86.10
2019-02-06T03:11:02.601Z,87.83
2019-02-06T03:13:57.443Z,87.07
2019-02-06T03:16:52.225Z,88.17
2019-02-06T03:19:47.096Z,76.67
2019-02-06T03:22:41.999Z,84.70
2019-02-06T03:25:36.625Z,81.60
2019-02-06T03:28:31.259Z,78.63
2019-02-06T03:31:25.752Z,81.50
2019-02-06T03:34:20.872Z,77.23
2019-02-06T03:37:15.042Z,78.90
2019-02-06T03:40:11.035Z,78.80
2019-02-06T03:43:06.082Z,83.67
2019-02-06T03:46:00.684Z,81.90
2019-02-06T03:48:56.126Z,79.40
2019-02-06T03:51:50.989Z,80.93
2019-02-06T03:54:45.458Z,80.17
2019-02-06T03:57:40.151Z,80.37
2019-02-06T04:00:34.475Z,78.73
2019-02-06T04:03:29.517Z,76.43
2019-02-06T04:06:24.621Z,77.47
2019-02-06T04:09:19.096Z,80.03
2019-02-06T04:12:14.010Z,79.57
2019-02-06T04:15:09.541Z,77.27
2019-02-06T04:18:03.010Z,80.30
2019-02-06T04:20:57.566Z,79.60
2019-02-06T04:23:53.111Z,77.10
2019-02-06T04:26:48.542Z,76.73
2019-02-06T04:29:43.643Z,77.50
2019-02-06T04:32:38.380Z,75.17
2019-02-06T04:35:33.020Z,74.53
2019-02-06T04:38:27.285Z,75.13
2019-02-06T04:41:21.610Z,75.73
2019-02-06T04:44:16.194Z,75.50
2019-02-06T04:47:11.357Z,73.13
2019-02-06T04:50:05.005Z,72.00
2019-02-06T04:52:59.641Z,69.57
2019-02-06T04:56:40.826Z,72.70
2019-02-06T05:01:05.503Z,68.87
2019-02-06T05:04:03.459Z,69.10
2019-02-06T05:06:59.702Z,69.63
2019-02-06T05:09:55.369Z,70.67
2019-02-06T05:12:50.683Z,68.43
2019-02-06T05:15:47.260Z,70.00
2019-02-06T05:18:45.221Z,69.67
2019-02-06T05:22:37.851Z,67.00
2019-02-06T05:25:42.514Z,68.60
2019-02-06T05:31:32.483Z,65.37
2019-02-06T05:34:27.340Z,63.90
2019-02-06T05:40:58.417Z,66.33
2019-02-06T05:43:58.155Z,61.90
2019-02-06T05:46:58.827Z,64.57
2019-02-06T05:49:54.271Z,61.50
2019-02-06T05:52:49.342Z,54.20
2019-02-06T05:55:52.145Z,58.17
2019-02-06T05:58:49.205Z,57.03
2019-02-06T06:04:34.394Z,55.10
2019-02-06T06:07:45.110Z,57.47
2019-02-06T06:10:34.147Z,55.27
2019-02-06T06:13:33.562Z,51.37
2019-02-06T06:16:29.858Z,51.47
2019-02-06T06:19:24.769Z,54.07
2019-02-06T06:22:21.158Z,49.30
2019-02-06T06:25:24.085Z,50.70
2019-02-06T06:32:06.580Z,50.37
2019-02-06T06:35:36.105Z,45.52
2019-02-06T06:38:34.836Z,49.53
2019-02-06T06:42:25.016Z,47.60
2019-02-06T06:45:20.703Z,49.20
2019-02-06T06:48:20.388Z,48.30
2019-02-06T06:51:15.135Z,42.13
2019-02-06T06:54:13.892Z,45.20
2019-02-06T06:57:18.008Z,46.17
2019-02-06T07:00:26.902Z,46.63
2019-02-06T07:03:27.692Z,44.33
2019-02-06T07:06:22.870Z,45.03
2019-02-06T07:13:45.384Z,34.47
2019-02-06T07:16:44.226Z,37.83
2019-02-06T07:20:03.651Z,35.40
2019-02-06T07:23:12.877Z,37.87
2019-02-06T07:26:11.282Z,34.90
2019-02-06T07:29:10.365Z,36.73
2019-02-06T07:32:18.175Z,36.27
2019-02-06T07:35:16.336Z,34.83
2019-02-06T07:38:23.606Z,36.77
2019-02-06T07:41:12.671Z,34.37
2019-02-06T07:44:08.068Z,35.47
2019-02-06T07:51:30.123Z,33.63
2019-02-06T07:54:26.606Z,32.13
2019-02-06T07:57:22.077Z,32.20
2019-02-06T08:01:39.878Z,36.40
2019-02-06T08:04:45.027Z,33.67
2019-02-06T08:07:42.165Z,31.48
2019-02-06T08:10:38.221Z,32.40
2019-02-06T08:13:32.672Z,30.33
2019-02-06T08:16:28.719Z,31.03
2019-02-06T08:19:24.393Z,30.60
2019-02-06T08:22:19.750Z,31.67
2019-02-06T08:25:16.786Z,30.00
2019-02-06T08:28:12.752Z,31.70
2019-02-06T08:31:08.809Z,30.13
2019-02-06T08:34:05.580Z,33.60
2019-02-06T08:37:01.211Z,32.53
2019-02-06T08:39:56.325Z,31.90
2019-02-06T08:42:52.388Z,32.50
2019-02-06T08:45:48.558Z,33.37
2019-02-06T08:48:43.525Z,32.33
2019-02-06T08:52:08.383Z,33.18
2019-02-06T08:55:07.189Z,34.33
2019-02-06T08:58:04.424Z,37.20
2019-02-06T09:01:10.321Z,36.20
2019-02-06T09:04:09.501Z,36.13
2019-02-06T09:07:09.873Z,35.97
2019-02-06T09:10:06.424Z,36.83
2019-02-06T09:13:04.203Z,34.87
2019-02-06T09:16:02.463Z,33.17
2019-02-06T09:18:57.951Z,35.08
2019-02-06T09:21:53.881Z,34.77
2019-02-06T09:24:49.374Z,35.45
2019-02-06T09:27:45.638Z,34.93
2019-02-06T09:33:42.871Z,35.90
2019-02-06T09:36:39.956Z,35.25
2019-02-06T09:39:36.542Z,35.60
2019-02-06T09:42:32.175Z,34.03
2019-02-06T09:45:29.454Z,34.43
2019-02-06T09:48:25.482Z,33.27
2019-02-06T09:51:28.478Z,34.30
2019-02-06T09:54:37.295Z,33.78
2019-02-06T09:57:35.466Z,33.90
2019-02-06T10:00:36.993Z,32.17
2019-02-06T10:03:36.066Z,32.30
2019-02-06T10:06:45.718Z,32.00
2019-02-06T10:09:42.874Z,32.20
2019-02-06T10:12:43.381Z,32.03
2019-02-06T10:15:41.592Z,32.50
2019-02-06T10:18:40.927Z,30.97
2019-02-06T10:21:37.550Z,31.60
2019-02-06T10:24:34.631Z,32.07
2019-02-06T10:30:34.339Z,32.67
2019-02-06T10:34:03.353Z,32.73
2019-02-06T10:36:59.066Z,33.40
2019-02-06T10:40:17.648Z,33.47
2019-02-06T10:43:17.873Z,32.73
2019-02-06T10:46:18.506Z,34.10
2019-02-06T10:49:15.956Z,33.40
2019-02-06T10:52:11.392Z,32.45
2019-02-06T10:55:07.404Z,32.90
2019-02-06T10:58:02.886Z,32.15
2019-02-06T11:01:04.157Z,31.13
2019-02-06T11:04:00.007Z,32.78
2019-02-06T11:07:22.799Z,33.03
2019-02-06T11:10:16.794Z,32.73
2019-02-06T11:13:24.413Z,31.33
2019-02-06T11:16:37.820Z,32.70
2019-02-06T11:19:39.705Z,33.83
2019-02-06T11:22:38.577Z,32.83
2019-02-06T11:25:35.634Z,32.33
2019-02-06T11:31:37.292Z,33.70
2019-02-06T11:34:57.144Z,32.73
2019-02-06T11:37:54.322Z,32.30
2019-02-06T11:41:06.613Z,32.35
2019-02-06T11:44:03.559Z,34.17
2019-02-06T11:47:17.408Z,32.80
2019-02-06T11:50:17.627Z,33.77
2019-02-06T11:53:14.820Z,32.17
2019-02-06T11:56:12.876Z,33.00
2019-02-06T11:59:08.234Z,32.28
2019-02-06T12:01:57.996Z,35.10
2019-02-06T12:04:53.487Z,32.57
2019-02-06T12:07:49.494Z,33.95
2019-02-06T12:10:44.343Z,31.13
2019-02-06T12:13:41.550Z,33.27
2019-02-06T12:16:37.434Z,31.97
2019-02-06T12:19:33.503Z,32.77
2019-02-06T12:22:28.448Z,33.37
2019-02-06T12:25:23.544Z,33.47
2019-02-06T12:31:43.406Z,34.75
2019-02-06T12:34:43.720Z,32.88
2019-02-06T12:37:45.319Z,32.53
2019-02-06T12:40:43.255Z,31.60
2019-02-06T12:43:38.319Z,32.50
2019-02-06T12:46:33.114Z,32.90
2019-02-06T12:49:28.551Z,33.30
2019-02-06T12:52:23.396Z,33.45
2019-02-06T12:55:27.429Z,32.60
2019-02-06T12:58:26.106Z,31.30
2019-02-06T13:01:16.881Z,33.80
2019-02-06T13:04:15.170Z,35.40
2019-02-06T13:07:10.797Z,33.78
2019-02-06T13:10:06.199Z,35.17
2019-02-06T13:13:02.325Z,34.17
2019-02-06T13:15:57.419Z,35.43
2019-02-06T13:18:52.430Z,35.85
2019-02-06T13:21:49.039Z,34.30
2019-02-06T13:24:44.113Z,36.28
2019-02-06T13:27:39.180Z,35.13
2019-02-06T13:30:42.459Z,35.87
2019-02-06T13:33:38.512Z,36.60
2019-02-06T13:36:34.184Z,36.70
2019-02-06T13:39:29.287Z,39.03
2019-02-06T13:42:24.965Z,37.77
2019-02-06T13:45:22.840Z,40.30
2019-02-06T13:48:17.993Z,39.37
2019-02-06T13:51:17.511Z,39.20
2019-02-06T13:54:09.025Z,36.73
2019-02-06T13:57:03.820Z,35.68
2019-02-06T13:59:59.032Z,37.90
2019-02-06T14:02:54.210Z,36.10
2019-02-06T14:05:49.643Z,35.97
2019-02-06T14:08:45.775Z,38.17
2019-02-06T14:11:40.912Z,37.13
2019-02-06T14:14:35.388Z,35.97
2019-02-06T14:17:30.717Z,37.77
2019-02-06T14:20:30.867Z,35.83
2019-02-06T14:23:48.504Z,37.97
2019-02-06T14:27:13.945Z,36.42
2019-02-06T14:30:30.436Z,36.77
2019-02-06T14:33:43.531Z,35.67
2019-02-06T14:37:15.177Z,35.70
2019-02-06T14:40:50.222Z,36.27
2019-02-06T14:44:30.449Z,35.40
2019-02-06T14:47:47.045Z,35.97
2019-02-06T14:51:07.687Z,36.17
2019-02-06T14:54:45.347Z,33.93
2019-02-06T14:58:12.227Z,35.37
2019-02-06T15:01:33.876Z,35.47
2019-02-06T15:05:08.228Z,36.10
2019-02-06T15:08:38.155Z,36.57
2019-02-06T15:12:27.058Z,36.13
2019-02-06T15:15:40.223Z,34.57
2019-02-06T15:18:58.677Z,35.83
2019-02-06T15:22:21.552Z,35.10
2019-02-06T15:26:07.756Z,35.47
2019-02-06T15:29:31.431Z,35.33
2019-02-06T15:33:03.826Z,35.23
2019-02-06T15:36:35.369Z,35.10
2019-02-06T15:40:06.712Z,34.57
2019-02-06T15:43:09.864Z,34.80
2019-02-06T15:46:33.610Z,33.83
2019-02-06T15:49:55.255Z,36.10
2019-02-06T15:53:09.352Z,33.43
2019-02-06T15:56:42.378Z,33.40
2019-02-06T16:00:04.705Z,35.20
2019-02-06T16:03:14.846Z,33.87
2019-02-06T16:06:36.339Z,33.63
2019-02-06T16:09:50.776Z,33.80
2019-02-06T16:13:18.742Z,33.80
2019-02-06T16:16:42.370Z,33.13
2019-02-06T16:20:22.683Z,36.53
2019-02-06T16:24:00.854Z,35.07
2019-02-06T16:27:36.973Z,34.53
2019-02-06T16:31:05.892Z,35.13
2019-02-06T16:34:29.080Z,34.53
2019-02-06T16:38:12.587Z,33.63
2019-02-06T16:41:53.877Z,32.60
2019-02-06T16:45:27.061Z,34.53
2019-02-06T16:49:00.455Z,33.67
2019-02-06T16:52:32.640Z,32.90
2019-02-06T16:56:09.747Z,33.37
2019-02-06T16:59:47.480Z,32.57
2019-02-06T17:03:39.262Z,33.40
2019-02-06T17:07:10.569Z,32.03
2019-02-06T17:10:39.870Z,32.03
2019-02-06T17:14:11.776Z,32.17
2019-02-06T17:17:52.436Z,31.70
2019-02-06T17:21:24.974Z,31.67
2019-02-06T17:25:02.670Z,32.63
2019-02-06T17:28:28.584Z,30.30
2019-02-06T17:32:03.251Z,31.57
2019-02-06T17:35:11.830Z,32.10
2019-02-06T17:38:40.815Z,31.07
2019-02-06T17:42:15.720Z,30.10
2019-02-06T17:45:41.998Z,30.53
2019-02-06T17:49:10.623Z,29.53
2019-02-06T17:52:40.291Z,30.30
2019-02-06T17:55:34.915Z,29.80
2019-02-06T17:58:34.907Z,30.30
2019-02-06T18:01:46.095Z,30.30
2019-02-06T18:04:44.382Z,29.40
2019-02-06T18:07:39.564Z,29.30
2019-02-06T18:10:34.770Z,29.83
2019-02-06T18:13:29.590Z,29.73
2019-02-06T18:16:24.017Z,31.13
2019-02-06T18:22:09.577Z,31.80
2019-02-06T18:25:04.161Z,32.00
2019-02-06T18:27:58.788Z,31.70
2019-02-06T18:30:53.557Z,33.40
2019-02-06T18:33:49.296Z,29.43
2019-02-06T18:36:43.363Z,33.97
2019-02-06T18:39:37.629Z,36.80
2019-02-06T18:42:37.211Z,34.97
2019-02-06T18:45:28.745Z,33.33
2019-02-06T18:48:25.951Z,34.73
2019-02-06T18:51:20.289Z,34.30
2019-02-06T18:54:15.048Z,37.00
2019-02-06T18:57:09.771Z,34.10
2019-02-06T19:00:04.095Z,36.30
2019-02-06T19:02:58.479Z,38.23
2019-02-06T19:05:52.966Z,38.60
2019-02-06T19:08:48.227Z,45.53
2019-02-06T19:11:42.534Z,38.57
2019-02-06T19:14:36.736Z,41.17
2019-02-06T19:17:31.102Z,36.17
2019-02-06T19:20:25.349Z,36.43
2019-02-06T19:23:19.718Z,37.33
2019-02-06T19:26:14.041Z,41.13
2019-02-06T19:29:08.440Z,34.67
2019-02-06T19:32:02.618Z,38.33
2019-02-06T19:34:54.829Z,35.50
2019-02-06T19:37:49.178Z,36.03
2019-02-06T19:40:43.639Z,38.93
2019-02-06T19:43:37.715Z,40.20
2019-02-06T19:46:32.110Z,40.07
2019-02-06T19:49:26.283Z,38.70
2019-02-06T19:52:20.603Z,39.93
2019-02-06T19:55:15.892Z,40.67
2019-02-06T19:58:10.629Z,35.67
2019-02-06T20:01:05.008Z,41.73
2019-02-06T20:03:59.301Z,41.40
2019-02-06T20:06:54.239Z,40.60
2019-02-06T20:09:48.676Z,41.17
2019-02-06T20:12:43.462Z,40.43
2019-02-06T20:15:37.850Z,41.03
2019-02-06T20:18:32.189Z,42.73
2019-02-06T20:21:26.585Z,44.17
2019-02-06T20:24:22.908Z,43.33
2019-02-06T20:27:17.323Z,42.83
2019-02-06T20:30:14.577Z,44.87
2019-02-06T20:33:09.057Z,38.80
2019-02-06T20:36:04.369Z,41.20
2019-02-06T20:38:59.131Z,38.90
2019-02-06T20:41:52.305Z,36.10
2019-02-06T20:44:46.432Z,41.37
2019-02-06T20:47:41.393Z,36.37
2019-02-06T20:50:36.774Z,35.90
2019-02-06T20:53:31.057Z,36.17
2019-02-06T20:56:25.809Z,33.23
2019-02-06T20:59:20.582Z,34.60
2019-02-06T21:02:14.979Z,37.90
2019-02-06T21:05:08.851Z,36.37
2019-02-06T21:08:03.290Z,36.27
2019-02-06T21:10:58.664Z,34.53
2019-02-06T21:13:52.972Z,34.63
2019-02-06T21:16:47.187Z,37.97
2019-02-06T21:19:41.479Z,35.87
2019-02-06T21:22:35.734Z,36.53
2019-02-06T21:25:30.128Z,37.67
2019-02-06T21:28:24.509Z,34.13
2019-02-06T21:31:18.561Z,34.83
2019-02-06T21:34:12.917Z,35.63
2019-02-06T21:37:07.244Z,38.10
2019-02-06T21:40:01.313Z,38.47
2019-02-06T21:42:56.447Z,34.77
2019-02-06T21:45:50.692Z,37.57
2019-02-06T21:48:46.395Z,34.03
2019-02-06T21:51:40.718Z,35.30
2019-02-06T21:54:35.051Z,35.37
2019-02-06T21:57:29.287Z,36.90
2019-02-06T22:00:26.113Z,33.80
2019-02-06T22:03:20.503Z,33.83
2019-02-06T22:06:14.871Z,33.57
2019-02-06T22:09:12.651Z,36.60
2019-02-06T22:12:07.347Z,34.60
2019-02-06T22:15:01.808Z,35.33
2019-02-06T22:17:57.288Z,34.33
2019-02-06T22:20:52.022Z,35.80
2019-02-06T22:23:45.989Z,35.43
2019-02-06T22:26:40.505Z,37.73
2019-02-06T22:29:34.667Z,38.50
2019-02-06T22:32:29.002Z,39.27
2019-02-06T22:35:23.431Z,37.57
2019-02-06T22:38:17.755Z,36.87
2019-02-06T22:41:11.786Z,38.03
2019-02-06T22:44:06.874Z,38.80
2019-02-06T22:47:01.589Z,37.47
2019-02-06T22:49:57.608Z,38.97
2019-02-06T22:52:51.376Z,41.20
2019-02-06T22:55:45.706Z,40.13
2019-02-06T22:58:39.803Z,37.70
2019-02-06T23:01:41.761Z,40.70
2019-02-06T23:04:36.025Z,39.50
2019-02-06T23:07:30.354Z,39.00
2019-02-06T23:10:24.525Z,38.87
2019-02-06T23:13:19.670Z,38.50
2019-02-06T23:16:14.303Z,38.63
2019-02-06T23:19:08.415Z,40.57
2019-02-06T23:22:02.517Z,39.50
2019-02-06T23:24:56.609Z,41.00
2019-02-06T23:27:50.878Z,41.47
2019-02-06T23:30:45.008Z,38.63
2019-02-06T23:33:40.286Z,39.63
2019-02-06T23:36:34.923Z,40.70
2019-02-06T23:39:29.097Z,40.27
2019-02-06T23:42:23.571Z,40.87
2019-02-06T23:45:17.772Z,40.83
2019-02-06T23:48:12.039Z,38.57
2019-02-06T23:51:07.050Z,41.37
2019-02-06T23:54:01.125Z,39.43
2019-02-06T23:56:55.335Z,42.00
2019-02-06T23:59:49.834Z,41.77
